sensor_id;sensor_type;location;lat;lon;timestamp;P1;durP1;ratioP1;P2;durP2;ratioP2
56201;SDS011;42117;50.360;3.508;2022-10-04T00:00:23;23.45;;;6.18;;
56201;SDS011;42117;50.360;3.508;2022-10-04T00:02:49;11.02;;;5.72;;
56201;SDS011;42117;50.360;3.508;2022-10-04T00:05:16;9.32;;;6.15;;
56201;SDS011;42117;50.360;3.508;2022-10-04T00:07:46;12.73;;;5.65;;
56201;SDS011;42117;50.360;3.508;2022-10-04T00:10:15;14.48;;;5.80;;
56201;SDS011;42117;50.360;3.508;2022-10-04T00:12:49;10.48;;;5.75;;
56201;SDS011;42117;50.360;3.508;2022-10-04T00:17:43;14.88;;;5.80;;
56201;SDS011;42117;50.360;3.508;2022-10-04T00:23:39;16.00;;;6.15;;
56201;SDS011;42117;50.360;3.508;2022-10-04T00:25:39;15.93;;;6.13;;
56201;SDS011;42117;50.360;3.508;2022-10-04T00:28:25;10.57;;;6.03;;
56201;SDS011;42117;50.360;3.508;2022-10-04T00:41:51;8.95;;;5.75;;
56201;SDS011;42117;50.360;3.508;2022-10-04T00:47:00;10.93;;;6.20;;
56201;SDS011;42117;50.360;3.508;2022-10-04T00:49:31;12.27;;;5.93;;
56201;SDS011;42117;50.360;3.508;2022-10-04T00:52:05;23.10;;;5.95;;
56201;SDS011;42117;50.360;3.508;2022-10-04T00:54:33;18.77;;;7.35;;
56201;SDS011;42117;50.360;3.508;2022-10-04T00:57:06;10.65;;;6.15;;
56201;SDS011;42117;50.360;3.508;2022-10-04T00:59:40;9.88;;;5.55;;
56201;SDS011;42117;50.360;3.508;2022-10-04T01:04:41;9.43;;;4.90;;
56201;SDS011;42117;50.360;3.508;2022-10-04T01:07:08;11.27;;;5.75;;
56201;SDS011;42117;50.360;3.508;2022-10-04T01:09:37;20.25;;;6.28;;
56201;SDS011;42117;50.360;3.508;2022-10-04T01:12:09;16.70;;;5.75;;
56201;SDS011;42117;50.360;3.508;2022-10-04T01:14:43;8.55;;;5.88;;
56201;SDS011;42117;50.360;3.508;2022-10-04T01:17:12;15.23;;;6.43;;
56201;SDS011;42117;50.360;3.508;2022-10-04T01:19:38;13.23;;;5.45;;
56201;SDS011;42117;50.360;3.508;2022-10-04T01:22:14;8.80;;;5.18;;
56201;SDS011;42117;50.360;3.508;2022-10-04T01:24:43;10.65;;;5.97;;
56201;SDS011;42117;50.360;3.508;2022-10-04T01:29:54;18.50;;;6.47;;
56201;SDS011;42117;50.360;3.508;2022-10-04T01:32:20;7.40;;;4.85;;
56201;SDS011;42117;50.360;3.508;2022-10-04T01:34:47;7.43;;;5.75;;
56201;SDS011;42117;50.360;3.508;2022-10-04T01:37:13;11.90;;;6.50;;
56201;SDS011;42117;50.360;3.508;2022-10-04T01:39:39;10.25;;;6.43;;
56201;SDS011;42117;50.360;3.508;2022-10-04T01:42:10;10.07;;;6.40;;
56201;SDS011;42117;50.360;3.508;2022-10-04T01:44:40;8.18;;;5.22;;
56201;SDS011;42117;50.360;3.508;2022-10-04T01:47:17;8.48;;;5.85;;
56201;SDS011;42117;50.360;3.508;2022-10-04T01:49:46;12.95;;;6.40;;
56201;SDS011;42117;50.360;3.508;2022-10-04T01:52:14;10.98;;;5.40;;
56201;SDS011;42117;50.360;3.508;2022-10-04T01:54:43;10.18;;;5.88;;
56201;SDS011;42117;50.360;3.508;2022-10-04T01:57:13;11.48;;;6.47;;
56201;SDS011;42117;50.360;3.508;2022-10-04T02:00:00;10.27;;;5.75;;
56201;SDS011;42117;50.360;3.508;2022-10-04T02:04:53;13.50;;;6.18;;
56201;SDS011;42117;50.360;3.508;2022-10-04T02:07:20;10.52;;;6.07;;
56201;SDS011;42117;50.360;3.508;2022-10-04T02:09:47;18.80;;;6.60;;
56201;SDS011;42117;50.360;3.508;2022-10-04T02:12:15;10.73;;;6.55;;
56201;SDS011;42117;50.360;3.508;2022-10-04T02:14:43;11.00;;;5.95;;
56201;SDS011;42117;50.360;3.508;2022-10-04T02:17:12;10.27;;;5.90;;
56201;SDS011;42117;50.360;3.508;2022-10-04T02:19:41;10.52;;;6.38;;
56201;SDS011;42117;50.360;3.508;2022-10-04T02:22:09;17.90;;;6.72;;
56201;SDS011;42117;50.360;3.508;2022-10-04T02:24:39;12.48;;;7.25;;
56201;SDS011;42117;50.360;3.508;2022-10-04T02:27:07;13.40;;;7.18;;
56201;SDS011;42117;50.360;3.508;2022-10-04T02:29:33;14.82;;;6.10;;
56201;SDS011;42117;50.360;3.508;2022-10-04T02:31:59;8.05;;;5.88;;
56201;SDS011;42117;50.360;3.508;2022-10-04T02:34:45;13.50;;;6.15;;
56201;SDS011;42117;50.360;3.508;2022-10-04T02:37:11;9.85;;;5.97;;
56201;SDS011;42117;50.360;3.508;2022-10-04T02:39:48;14.68;;;6.53;;
56201;SDS011;42117;50.360;3.508;2022-10-04T02:44:45;10.30;;;6.03;;
56201;SDS011;42117;50.360;3.508;2022-10-04T02:49:43;9.25;;;5.82;;
56201;SDS011;42117;50.360;3.508;2022-10-04T02:54:49;12.80;;;5.18;;
56201;SDS011;42117;50.360;3.508;2022-10-04T02:57:20;11.77;;;6.20;;
56201;SDS011;42117;50.360;3.508;2022-10-04T02:59:47;10.40;;;5.38;;
56201;SDS011;42117;50.360;3.508;2022-10-04T03:02:29;10.80;;;5.20;;
56201;SDS011;42117;50.360;3.508;2022-10-04T03:04:56;10.02;;;5.88;;
56201;SDS011;42117;50.360;3.508;2022-10-04T03:07:23;13.93;;;5.95;;
56201;SDS011;42117;50.360;3.508;2022-10-04T03:09:49;13.55;;;7.20;;
56201;SDS011;42117;50.360;3.508;2022-10-04T03:12:15;14.80;;;6.32;;
56201;SDS011;42117;50.360;3.508;2022-10-04T03:14:42;10.48;;;5.53;;
56201;SDS011;42117;50.360;3.508;2022-10-04T03:17:09;9.82;;;6.28;;
56201;SDS011;42117;50.360;3.508;2022-10-04T03:19:36;16.60;;;6.15;;
56201;SDS011;42117;50.360;3.508;2022-10-04T03:22:06;11.30;;;5.50;;
56201;SDS011;42117;50.360;3.508;2022-10-04T03:24:34;15.18;;;6.53;;
56201;SDS011;42117;50.360;3.508;2022-10-04T03:27:02;11.40;;;5.97;;
56201;SDS011;42117;50.360;3.508;2022-10-04T03:29:30;13.00;;;5.80;;
56201;SDS011;42117;50.360;3.508;2022-10-04T03:31:57;9.02;;;5.85;;
56201;SDS011;42117;50.360;3.508;2022-10-04T03:34:27;26.60;;;6.22;;
56201;SDS011;42117;50.360;3.508;2022-10-04T03:36:56;9.98;;;6.22;;
56201;SDS011;42117;50.360;3.508;2022-10-04T03:39:33;9.55;;;5.88;;
56201;SDS011;42117;50.360;3.508;2022-10-04T03:42:03;8.32;;;5.47;;
56201;SDS011;42117;50.360;3.508;2022-10-04T03:44:30;6.82;;;4.97;;
56201;SDS011;42117;50.360;3.508;2022-10-04T03:46:56;14.38;;;6.32;;
56201;SDS011;42117;50.360;3.508;2022-10-04T03:49:30;16.48;;;6.03;;
56201;SDS011;42117;50.360;3.508;2022-10-04T03:51:57;9.52;;;5.32;;
56201;SDS011;42117;50.360;3.508;2022-10-04T03:54:24;7.25;;;5.05;;
56201;SDS011;42117;50.360;3.508;2022-10-04T03:56:52;7.95;;;5.18;;
56201;SDS011;42117;50.360;3.508;2022-10-04T03:59:19;13.18;;;6.03;;
56201;SDS011;42117;50.360;3.508;2022-10-04T04:01:46;12.35;;;6.45;;
56201;SDS011;42117;50.360;3.508;2022-10-04T04:07:05;11.50;;;5.20;;
56201;SDS011;42117;50.360;3.508;2022-10-04T04:09:37;14.50;;;5.28;;
56201;SDS011;42117;50.360;3.508;2022-10-04T04:12:05;7.43;;;4.95;;
56201;SDS011;42117;50.360;3.508;2022-10-04T04:14:34;8.95;;;5.15;;
56201;SDS011;42117;50.360;3.508;2022-10-04T04:17:16;8.63;;;5.13;;
56201;SDS011;42117;50.360;3.508;2022-10-04T04:19:42;23.35;;;6.00;;
56201;SDS011;42117;50.360;3.508;2022-10-04T04:22:18;9.05;;;4.63;;
56201;SDS011;42117;50.360;3.508;2022-10-04T04:24:45;7.20;;;5.00;;
56201;SDS011;42117;50.360;3.508;2022-10-04T04:27:12;9.43;;;5.32;;
56201;SDS011;42117;50.360;3.508;2022-10-04T04:30:14;14.60;;;5.38;;
56201;SDS011;42117;50.360;3.508;2022-10-04T04:35:00;10.75;;;4.63;;
56201;SDS011;42117;50.360;3.508;2022-10-04T04:37:34;13.77;;;4.50;;
56201;SDS011;42117;50.360;3.508;2022-10-04T04:40:10;11.18;;;4.68;;
56201;SDS011;42117;50.360;3.508;2022-10-04T04:42:42;6.72;;;4.88;;
56201;SDS011;42117;50.360;3.508;2022-10-04T04:45:13;10.18;;;4.93;;
56201;SDS011;42117;50.360;3.508;2022-10-04T04:47:44;7.13;;;4.70;;
56201;SDS011;42117;50.360;3.508;2022-10-04T04:50:15;10.60;;;4.43;;
56201;SDS011;42117;50.360;3.508;2022-10-04T04:52:42;8.40;;;4.57;;
56201;SDS011;42117;50.360;3.508;2022-10-04T04:55:28;21.52;;;4.80;;
56201;SDS011;42117;50.360;3.508;2022-10-04T04:57:55;8.13;;;4.80;;
56201;SDS011;42117;50.360;3.508;2022-10-04T05:00:26;7.97;;;5.18;;
56201;SDS011;42117;50.360;3.508;2022-10-04T05:02:54;7.65;;;4.63;;
56201;SDS011;42117;50.360;3.508;2022-10-04T05:05:25;8.38;;;5.65;;
56201;SDS011;42117;50.360;3.508;2022-10-04T05:12:56;10.63;;;5.70;;
56201;SDS011;42117;50.360;3.508;2022-10-04T05:15:23;8.95;;;5.38;;
56201;SDS011;42117;50.360;3.508;2022-10-04T05:17:50;11.70;;;5.57;;
56201;SDS011;42117;50.360;3.508;2022-10-04T05:20:16;12.32;;;5.93;;
56201;SDS011;42117;50.360;3.508;2022-10-04T05:22:45;7.07;;;4.47;;
56201;SDS011;42117;50.360;3.508;2022-10-04T05:25:21;14.23;;;5.18;;
56201;SDS011;42117;50.360;3.508;2022-10-04T05:27:49;12.95;;;5.65;;
56201;SDS011;42117;50.360;3.508;2022-10-04T05:35:26;7.68;;;5.68;;
56201;SDS011;42117;50.360;3.508;2022-10-04T05:42:57;9.68;;;5.20;;
56201;SDS011;42117;50.360;3.508;2022-10-04T05:45:25;12.68;;;5.60;;
56201;SDS011;42117;50.360;3.508;2022-10-04T05:47:52;15.80;;;5.22;;
56201;SDS011;42117;50.360;3.508;2022-10-04T05:52:45;16.75;;;6.53;;
56201;SDS011;42117;50.360;3.508;2022-10-04T06:05:20;12.45;;;5.45;;
56201;SDS011;42117;50.360;3.508;2022-10-04T06:10:22;10.43;;;5.80;;
56201;SDS011;42117;50.360;3.508;2022-10-04T06:20:46;6.87;;;3.63;;
56201;SDS011;42117;50.360;3.508;2022-10-04T06:23:16;11.07;;;6.03;;
56201;SDS011;42117;50.360;3.508;2022-10-04T06:28:17;9.48;;;4.75;;
56201;SDS011;42117;50.360;3.508;2022-10-04T06:33:40;10.77;;;6.07;;
56201;SDS011;42117;50.360;3.508;2022-10-04T06:46:29;3.65;;;2.97;;
56201;SDS011;42117;50.360;3.508;2022-10-04T07:02:29;6.72;;;4.57;;
56201;SDS011;42117;50.360;3.508;2022-10-04T07:10:55;8.38;;;4.80;;
56201;SDS011;42117;50.360;3.508;2022-10-04T07:18:43;10.95;;;5.15;;
56201;SDS011;42117;50.360;3.508;2022-10-04T07:21:12;13.10;;;5.50;;
56201;SDS011;42117;50.360;3.508;2022-10-04T07:23:52;14.38;;;6.15;;
56201;SDS011;42117;50.360;3.508;2022-10-04T07:26:25;7.40;;;5.95;;
56201;SDS011;42117;50.360;3.508;2022-10-04T07:28:54;10.63;;;5.18;;
56201;SDS011;42117;50.360;3.508;2022-10-04T07:31:40;6.43;;;3.75;;
56201;SDS011;42117;50.360;3.508;2022-10-04T07:34:13;5.43;;;4.88;;
56201;SDS011;42117;50.360;3.508;2022-10-04T07:39:13;7.13;;;3.70;;
56201;SDS011;42117;50.360;3.508;2022-10-04T07:41:51;10.70;;;5.03;;
56201;SDS011;42117;50.360;3.508;2022-10-04T07:44:53;10.63;;;5.53;;
56201;SDS011;42117;50.360;3.508;2022-10-04T07:47:20;7.88;;;3.97;;
56201;SDS011;42117;50.360;3.508;2022-10-04T07:49:46;4.88;;;4.38;;
56201;SDS011;42117;50.360;3.508;2022-10-04T08:13:06;9.38;;;5.10;;
56201;SDS011;42117;50.360;3.508;2022-10-04T08:15:39;7.70;;;5.50;;
56201;SDS011;42117;50.360;3.508;2022-10-04T08:35:58;11.00;;;4.20;;
56201;SDS011;42117;50.360;3.508;2022-10-04T08:38:34;15.68;;;5.25;;
56201;SDS011;42117;50.360;3.508;2022-10-04T09:04:39;9.60;;;4.15;;
56201;SDS011;42117;50.360;3.508;2022-10-04T09:14:59;7.40;;;3.97;;
56201;SDS011;42117;50.360;3.508;2022-10-04T09:20:20;9.32;;;4.50;;
56201;SDS011;42117;50.360;3.508;2022-10-04T09:28:11;15.75;;;5.65;;
56201;SDS011;42117;50.360;3.508;2022-10-04T09:36:14;9.07;;;4.30;;
56201;SDS011;42117;50.360;3.508;2022-10-04T09:41:13;4.78;;;3.33;;
56201;SDS011;42117;50.360;3.508;2022-10-04T09:46:16;5.30;;;2.78;;
56201;SDS011;42117;50.360;3.508;2022-10-04T09:51:35;3.88;;;2.63;;
56201;SDS011;42117;50.360;3.508;2022-10-04T09:54:16;8.73;;;3.05;;
56201;SDS011;42117;50.360;3.508;2022-10-04T10:02:46;6.00;;;3.00;;
56201;SDS011;42117;50.360;3.508;2022-10-04T10:13:11;5.45;;;2.55;;
56201;SDS011;42117;50.360;3.508;2022-10-04T10:18:38;7.23;;;2.33;;
56201;SDS011;42117;50.360;3.508;2022-10-04T10:26:41;2.15;;;2.05;;
56201;SDS011;42117;50.360;3.508;2022-10-04T10:45:22;7.53;;;2.42;;
56201;SDS011;42117;50.360;3.508;2022-10-04T10:47:58;1.05;;;0.98;;
56201;SDS011;42117;50.360;3.508;2022-10-04T10:50:31;7.93;;;2.60;;
56201;SDS011;42117;50.360;3.508;2022-10-04T10:56:31;3.15;;;2.10;;
56201;SDS011;42117;50.360;3.508;2022-10-04T10:58:56;4.18;;;2.55;;
56201;SDS011;42117;50.360;3.508;2022-10-04T11:01:35;8.38;;;2.20;;
56201;SDS011;42117;50.360;3.508;2022-10-04T11:11:48;4.68;;;1.80;;
56201;SDS011;42117;50.360;3.508;2022-10-04T11:14:34;6.68;;;2.08;;
56201;SDS011;42117;50.360;3.508;2022-10-04T11:25:02;4.75;;;1.67;;
56201;SDS011;42117;50.360;3.508;2022-10-04T11:38:43;4.40;;;1.33;;
56201;SDS011;42117;50.360;3.508;2022-10-04T11:41:13;1.45;;;1.25;;
56201;SDS011;42117;50.360;3.508;2022-10-04T11:46:33;3.33;;;1.73;;
56201;SDS011;42117;50.360;3.508;2022-10-04T12:07:55;1.25;;;1.15;;
56201;SDS011;42117;50.360;3.508;2022-10-04T12:10:35;4.13;;;1.75;;
56201;SDS011;42117;50.360;3.508;2022-10-04T12:36:28;2.75;;;2.08;;
56201;SDS011;42117;50.360;3.508;2022-10-04T12:39:10;4.22;;;2.60;;
56201;SDS011;42117;50.360;3.508;2022-10-04T12:41:51;5.18;;;2.20;;
56201;SDS011;42117;50.360;3.508;2022-10-04T12:52:19;10.10;;;3.00;;
56201;SDS011;42117;50.360;3.508;2022-10-04T12:54:55;2.25;;;1.10;;
56201;SDS011;42117;50.360;3.508;2022-10-04T13:02:37;3.97;;;2.03;;
56201;SDS011;42117;50.360;3.508;2022-10-04T13:15:51;1.58;;;1.08;;
56201;SDS011;42117;50.360;3.508;2022-10-04T13:28:38;3.72;;;2.20;;
56201;SDS011;42117;50.360;3.508;2022-10-04T13:31:13;3.78;;;1.77;;
56201;SDS011;42117;50.360;3.508;2022-10-04T13:33:45;3.80;;;1.95;;
56201;SDS011;42117;50.360;3.508;2022-10-04T13:36:18;0.75;;;0.75;;
56201;SDS011;42117;50.360;3.508;2022-10-04T13:46:41;1.70;;;1.60;;
56201;SDS011;42117;50.360;3.508;2022-10-04T13:54:17;3.58;;;1.65;;
56201;SDS011;42117;50.360;3.508;2022-10-04T13:59:44;5.55;;;1.75;;
56201;SDS011;42117;50.360;3.508;2022-10-04T14:20:56;2.25;;;1.50;;
56201;SDS011;42117;50.360;3.508;2022-10-04T14:32:49;3.85;;;1.73;;
56201;SDS011;42117;50.360;3.508;2022-10-04T14:34:44;2.97;;;1.52;;
56201;SDS011;42117;50.360;3.508;2022-10-04T14:37:36;5.97;;;2.63;;
56201;SDS011;42117;50.360;3.508;2022-10-04T14:50:48;1.67;;;1.33;;
56201;SDS011;42117;50.360;3.508;2022-10-04T14:53:31;3.55;;;1.75;;
56201;SDS011;42117;50.360;3.508;2022-10-04T14:58:36;2.33;;;1.73;;
56201;SDS011;42117;50.360;3.508;2022-10-04T15:07:17;2.42;;;1.88;;
56201;SDS011;42117;50.360;3.508;2022-10-04T15:09:23;3.75;;;1.42;;
56201;SDS011;42117;50.360;3.508;2022-10-04T15:11:55;1.52;;;1.42;;
56201;SDS011;42117;50.360;3.508;2022-10-04T15:14:31;2.17;;;1.98;;
56201;SDS011;42117;50.360;3.508;2022-10-04T15:17:00;1.63;;;1.52;;
56201;SDS011;42117;50.360;3.508;2022-10-04T15:19:30;2.08;;;1.67;;
56201;SDS011;42117;50.360;3.508;2022-10-04T15:22:01;4.10;;;1.95;;
56201;SDS011;42117;50.360;3.508;2022-10-04T15:24:30;2.05;;;1.52;;
56201;SDS011;42117;50.360;3.508;2022-10-04T15:32:26;4.82;;;1.73;;
56201;SDS011;42117;50.360;3.508;2022-10-04T15:37:25;1.98;;;1.60;;
56201;SDS011;42117;50.360;3.508;2022-10-04T16:11:36;7.40;;;2.83;;
56201;SDS011;42117;50.360;3.508;2022-10-04T16:19:18;7.05;;;2.70;;
56201;SDS011;42117;50.360;3.508;2022-10-04T16:32:09;4.10;;;2.47;;
56201;SDS011;42117;50.360;3.508;2022-10-04T16:43:09;3.45;;;2.78;;
56201;SDS011;42117;50.360;3.508;2022-10-04T16:50:03;3.58;;;2.60;;
56201;SDS011;42117;50.360;3.508;2022-10-04T16:57:28;3.00;;;2.55;;
56201;SDS011;42117;50.360;3.508;2022-10-04T16:59:58;3.55;;;2.72;;
56201;SDS011;42117;50.360;3.508;2022-10-04T17:05:18;3.35;;;2.78;;
56201;SDS011;42117;50.360;3.508;2022-10-04T17:10:17;3.30;;;2.47;;
56201;SDS011;42117;50.360;3.508;2022-10-04T17:13:06;7.18;;;2.83;;
56201;SDS011;42117;50.360;3.508;2022-10-04T17:26:15;5.57;;;3.08;;
56201;SDS011;42117;50.360;3.508;2022-10-04T17:28:40;3.53;;;2.92;;
56201;SDS011;42117;50.360;3.508;2022-10-04T17:31:12;4.47;;;2.83;;
56201;SDS011;42117;50.360;3.508;2022-10-04T17:36:12;2.97;;;2.67;;
56201;SDS011;42117;50.360;3.508;2022-10-04T17:38:45;7.22;;;2.70;;
56201;SDS011;42117;50.360;3.508;2022-10-04T17:47:01;4.00;;;2.53;;
56201;SDS011;42117;50.360;3.508;2022-10-04T17:49:42;6.95;;;2.90;;
56201;SDS011;42117;50.360;3.508;2022-10-04T17:52:31;4.38;;;2.65;;
56201;SDS011;42117;50.360;3.508;2022-10-04T17:55:23;7.53;;;3.20;;
56201;SDS011;42117;50.360;3.508;2022-10-04T17:58:01;4.60;;;3.30;;
56201;SDS011;42117;50.360;3.508;2022-10-04T18:00:44;9.50;;;3.88;;
56201;SDS011;42117;50.360;3.508;2022-10-04T18:03:25;6.88;;;3.30;;
56201;SDS011;42117;50.360;3.508;2022-10-04T18:05:57;8.73;;;2.75;;
56201;SDS011;42117;50.360;3.508;2022-10-04T18:11:05;4.13;;;2.75;;
56201;SDS011;42117;50.360;3.508;2022-10-04T18:16:13;8.93;;;2.63;;
56201;SDS011;42117;50.360;3.508;2022-10-04T18:18:40;3.45;;;2.45;;
56201;SDS011;42117;50.360;3.508;2022-10-04T18:21:18;9.02;;;3.17;;
56201;SDS011;42117;50.360;3.508;2022-10-04T18:24:30;4.05;;;2.83;;
56201;SDS011;42117;50.360;3.508;2022-10-04T18:26:31;7.50;;;2.90;;
56201;SDS011;42117;50.360;3.508;2022-10-04T18:28:58;3.90;;;2.65;;
56201;SDS011;42117;50.360;3.508;2022-10-04T18:34:01;5.43;;;2.90;;
56201;SDS011;42117;50.360;3.508;2022-10-04T18:36:29;4.70;;;2.80;;
56201;SDS011;42117;50.360;3.508;2022-10-04T18:41:28;4.03;;;2.80;;
56201;SDS011;42117;50.360;3.508;2022-10-04T18:44:27;3.50;;;2.97;;
56201;SDS011;42117;50.360;3.508;2022-10-04T18:46:57;6.68;;;2.67;;
56201;SDS011;42117;50.360;3.508;2022-10-04T18:49:27;2.97;;;2.28;;
56201;SDS011;42117;50.360;3.508;2022-10-04T18:57:05;11.63;;;3.50;;
56201;SDS011;42117;50.360;3.508;2022-10-04T19:02:31;6.80;;;2.90;;
56201;SDS011;42117;50.360;3.508;2022-10-04T19:05:14;3.72;;;2.88;;
56201;SDS011;42117;50.360;3.508;2022-10-04T19:07:45;7.78;;;3.13;;
56201;SDS011;42117;50.360;3.508;2022-10-04T19:10:20;3.53;;;2.97;;
56201;SDS011;42117;50.360;3.508;2022-10-04T19:15:43;4.63;;;3.25;;
56201;SDS011;42117;50.360;3.508;2022-10-04T19:28:27;2.97;;;2.72;;
56201;SDS011;42117;50.360;3.508;2022-10-04T19:30:59;4.90;;;2.70;;
56201;SDS011;42117;50.360;3.508;2022-10-04T19:34:12;4.57;;;2.50;;
56201;SDS011;42117;50.360;3.508;2022-10-04T19:38:44;3.90;;;3.22;;
56201;SDS011;42117;50.360;3.508;2022-10-04T19:41:19;6.28;;;3.17;;
56201;SDS011;42117;50.360;3.508;2022-10-04T19:43:54;3.92;;;2.83;;
56201;SDS011;42117;50.360;3.508;2022-10-04T19:46:27;3.40;;;2.70;;
56201;SDS011;42117;50.360;3.508;2022-10-04T19:48:56;3.00;;;2.20;;
56201;SDS011;42117;50.360;3.508;2022-10-04T19:51:33;7.68;;;3.08;;
56201;SDS011;42117;50.360;3.508;2022-10-04T19:54:08;3.30;;;2.27;;
56201;SDS011;42117;50.360;3.508;2022-10-04T19:56:37;6.70;;;2.47;;
56201;SDS011;42117;50.360;3.508;2022-10-04T19:59:08;3.50;;;2.97;;
56201;SDS011;42117;50.360;3.508;2022-10-04T20:01:36;3.40;;;2.55;;
56201;SDS011;42117;50.360;3.508;2022-10-04T20:04:12;5.05;;;3.10;;
56201;SDS011;42117;50.360;3.508;2022-10-04T20:06:58;3.85;;;2.55;;
56201;SDS011;42117;50.360;3.508;2022-10-04T20:13:03;3.35;;;2.67;;
56201;SDS011;42117;50.360;3.508;2022-10-04T20:17:39;5.78;;;2.67;;
56201;SDS011;42117;50.360;3.508;2022-10-04T20:20:05;3.75;;;2.70;;
56201;SDS011;42117;50.360;3.508;2022-10-04T20:22:53;6.32;;;4.13;;
56201;SDS011;42117;50.360;3.508;2022-10-04T20:28:02;3.38;;;2.60;;
56201;SDS011;42117;50.360;3.508;2022-10-04T20:30:46;4.10;;;2.50;;
56201;SDS011;42117;50.360;3.508;2022-10-04T20:33:39;8.68;;;3.10;;
56201;SDS011;42117;50.360;3.508;2022-10-04T20:36:05;4.43;;;2.97;;
56201;SDS011;42117;50.360;3.508;2022-10-04T20:38:41;5.50;;;3.50;;
56201;SDS011;42117;50.360;3.508;2022-10-04T20:43:56;3.38;;;2.55;;
56201;SDS011;42117;50.360;3.508;2022-10-04T20:46:25;4.55;;;2.97;;
56201;SDS011;42117;50.360;3.508;2022-10-04T20:48:52;7.28;;;3.03;;
56201;SDS011;42117;50.360;3.508;2022-10-04T20:51:19;8.18;;;3.05;;
56201;SDS011;42117;50.360;3.508;2022-10-04T20:53:46;5.80;;;3.05;;
56201;SDS011;42117;50.360;3.508;2022-10-04T20:58:43;4.00;;;3.00;;
56201;SDS011;42117;50.360;3.508;2022-10-04T21:06:52;4.33;;;3.13;;
56201;SDS011;42117;50.360;3.508;2022-10-04T21:09:18;2.77;;;2.13;;
56201;SDS011;42117;50.360;3.508;2022-10-04T21:11:45;7.88;;;3.35;;
56201;SDS011;42117;50.360;3.508;2022-10-04T21:16:47;5.40;;;3.28;;
56201;SDS011;42117;50.360;3.508;2022-10-04T21:19:29;5.60;;;2.95;;
56201;SDS011;42117;50.360;3.508;2022-10-04T21:21:55;4.70;;;3.08;;
56201;SDS011;42117;50.360;3.508;2022-10-04T21:25:24;2.70;;;2.50;;
56201;SDS011;42117;50.360;3.508;2022-10-04T21:27:11;6.25;;;2.95;;
56201;SDS011;42117;50.360;3.508;2022-10-04T21:29:49;11.95;;;3.38;;
56201;SDS011;42117;50.360;3.508;2022-10-04T21:32:17;8.50;;;3.22;;
56201;SDS011;42117;50.360;3.508;2022-10-04T21:34:43;3.78;;;3.22;;
56201;SDS011;42117;50.360;3.508;2022-10-04T21:37:09;6.30;;;3.53;;
56201;SDS011;42117;50.360;3.508;2022-10-04T21:39:35;6.40;;;3.17;;
56201;SDS011;42117;50.360;3.508;2022-10-04T21:42:01;4.93;;;3.13;;
56201;SDS011;42117;50.360;3.508;2022-10-04T21:44:27;6.90;;;3.38;;
56201;SDS011;42117;50.360;3.508;2022-10-04T21:46:53;6.30;;;3.33;;
56201;SDS011;42117;50.360;3.508;2022-10-04T21:49:19;6.50;;;3.25;;
56201;SDS011;42117;50.360;3.508;2022-10-04T21:51:45;8.05;;;3.45;;
56201;SDS011;42117;50.360;3.508;2022-10-04T21:54:11;8.20;;;3.67;;
56201;SDS011;42117;50.360;3.508;2022-10-04T21:56:38;7.45;;;3.75;;
56201;SDS011;42117;50.360;3.508;2022-10-04T21:59:04;10.35;;;3.40;;
56201;SDS011;42117;50.360;3.508;2022-10-04T22:01:30;3.72;;;2.78;;
56201;SDS011;42117;50.360;3.508;2022-10-04T22:03:56;4.90;;;3.13;;
56201;SDS011;42117;50.360;3.508;2022-10-04T22:06:22;5.82;;;3.42;;
56201;SDS011;42117;50.360;3.508;2022-10-04T22:08:48;6.13;;;3.22;;
56201;SDS011;42117;50.360;3.508;2022-10-04T22:11:14;5.47;;;3.05;;
56201;SDS011;42117;50.360;3.508;2022-10-04T22:13:40;4.13;;;3.15;;
56201;SDS011;42117;50.360;3.508;2022-10-04T22:16:06;4.90;;;2.65;;
56201;SDS011;42117;50.360;3.508;2022-10-04T22:18:32;8.10;;;3.92;;
56201;SDS011;42117;50.360;3.508;2022-10-04T22:20:59;5.68;;;2.83;;
56201;SDS011;42117;50.360;3.508;2022-10-04T22:23:26;5.30;;;3.10;;
56201;SDS011;42117;50.360;3.508;2022-10-04T22:25:53;8.50;;;3.63;;
56201;SDS011;42117;50.360;3.508;2022-10-04T22:28:23;11.27;;;2.92;;
56201;SDS011;42117;50.360;3.508;2022-10-04T22:30:50;5.75;;;3.78;;
56201;SDS011;42117;50.360;3.508;2022-10-04T22:33:27;3.13;;;2.22;;
56201;SDS011;42117;50.360;3.508;2022-10-04T22:36:07;5.18;;;4.10;;
56201;SDS011;42117;50.360;3.508;2022-10-04T22:38:35;5.40;;;3.28;;
56201;SDS011;42117;50.360;3.508;2022-10-04T22:41:01;2.70;;;2.20;;
56201;SDS011;42117;50.360;3.508;2022-10-04T22:43:27;5.25;;;3.60;;
56201;SDS011;42117;50.360;3.508;2022-10-04T22:45:53;3.67;;;2.20;;
56201;SDS011;42117;50.360;3.508;2022-10-04T22:48:19;7.57;;;3.92;;
56201;SDS011;42117;50.360;3.508;2022-10-04T22:50:45;5.70;;;2.08;;
56201;SDS011;42117;50.360;3.508;2022-10-04T22:53:21;8.57;;;2.97;;
56201;SDS011;42117;50.360;3.508;2022-10-04T22:55:47;6.45;;;3.72;;
56201;SDS011;42117;50.360;3.508;2022-10-04T22:58:13;6.75;;;3.05;;
56201;SDS011;42117;50.360;3.508;2022-10-04T23:00:40;1.52;;;1.33;;
56201;SDS011;42117;50.360;3.508;2022-10-04T23:03:26;4.18;;;3.22;;
56201;SDS011;42117;50.360;3.508;2022-10-04T23:05:52;5.88;;;3.17;;
56201;SDS011;42117;50.360;3.508;2022-10-04T23:08:18;8.23;;;4.15;;
56201;SDS011;42117;50.360;3.508;2022-10-04T23:10:44;5.20;;;3.28;;
56201;SDS011;42117;50.360;3.508;2022-10-04T23:13:11;4.28;;;3.15;;
56201;SDS011;42117;50.360;3.508;2022-10-04T23:15:37;3.67;;;3.03;;
56201;SDS011;42117;50.360;3.508;2022-10-04T23:18:04;5.32;;;3.08;;
56201;SDS011;42117;50.360;3.508;2022-10-04T23:20:36;6.20;;;3.38;;
56201;SDS011;42117;50.360;3.508;2022-10-04T23:23:04;5.78;;;3.47;;
56201;SDS011;42117;50.360;3.508;2022-10-04T23:25:34;10.25;;;4.57;;
56201;SDS011;42117;50.360;3.508;2022-10-04T23:28:00;3.42;;;2.75;;
56201;SDS011;42117;50.360;3.508;2022-10-04T23:30:28;4.40;;;3.05;;
56201;SDS011;42117;50.360;3.508;2022-10-04T23:32:55;6.47;;;2.97;;
56201;SDS011;42117;50.360;3.508;2022-10-04T23:35:22;8.82;;;3.60;;
56201;SDS011;42117;50.360;3.508;2022-10-04T23:37:49;1.35;;;1.30;;
56201;SDS011;42117;50.360;3.508;2022-10-04T23:40:16;9.18;;;3.83;;
56201;SDS011;42117;50.360;3.508;2022-10-04T23:42:43;6.22;;;3.58;;
56201;SDS011;42117;50.360;3.508;2022-10-04T23:45:12;4.45;;;3.22;;
56201;SDS011;42117;50.360;3.508;2022-10-04T23:47:41;10.20;;;3.80;;
56201;SDS011;42117;50.360;3.508;2022-10-04T23:50:16;11.15;;;3.88;;
56201;SDS011;42117;50.360;3.508;2022-10-04T23:52:43;4.40;;;3.13;;
56201;SDS011;42117;50.360;3.508;2022-10-04T23:55:16;7.25;;;3.67;;
56201;SDS011;42117;50.360;3.508;2022-10-04T23:57:42;7.72;;;4.10;;
